Portada
METAR-TAF:

METAR-TAF

Aeropuertos :

Mountain Home, Arkansas, Estados Unidos

latitud: 36-22-14N, longitud: 092-28-19W, altitud: 282 m

Observación

El informe se hizo hace 43 minutos, a las 22:53 UTC
Viento calma
Temperatura 25°C
Humedad 69%
Presión 1018 hPa
Visibilidad: 16.1 km
Cielo despejado

METAR: KBPK 012253Z AUTO 00000KT 10SM CLR 25/19 A3006 RMK AO2 SLP169 T02500189

Hora: 18:36 (23:36 UTC)

Pronóstico

El informe se hizo hace 6 horas y 16 minutos, a las 17:20 UTC
Pronóstico válido del 01 a las 18 UTC al 02 a las 18 UTC
Viento 6 kt del noreste
Visibilidad: 10 km
Cielo nuboso a una altura de 4000 ft
Cielo cubierto a una altura de 8000 ft
A partir de las 02 a las 0000 UTC
Viento 4 kt con dirección variable
Visibilidad: 10 km
Escasas nubes a una altura de 4000 ft
Cielo nuboso a una altura de 10000 ft

TAF: KBPK 011720Z 0118/0218 04006KT P6SM BKN040 OVC080 FM020000 VRB04KT P6SM FEW040 BKN100

Observaciones y pronósticos meteorológicos de más de 4000 aeropuertos (mensajes METAR y TAF).

Los puntos amarillos y rojos representan las estaciones disponibles.

Ponga el ratón en el punto deseado para ver el nombre de la estación.

Haga clic para ver las observaciones y los pronósticos meteorológicos.

Para cambiar el mapa : haga clic en los botones verdes con una cruz de color negro para hacer un zoom, en el botón verde con un guión para alejar o en las flechas verdes para mapas adyacentes.


METAR-TAF: